Погода Набраньна неделю

Куба-Хачмасский район, Азербайджан

20 - 26 июля
  • 20июля
    Сегодня
    +24°
    +33°
    Практически безоблачно
    ВремяПогодаТемператураВлажностьДавлениеВетер, м/сВероятность осадков
    01:00Ясно и безоблачно+24°C78 %750 мм1.7 м/с2 %
    04:00Облачно с прояснениями+23°C79 %749 мм1.7 м/с2 %
    07:00Ясно и безоблачно+25°C62 %749 мм2.6 м/с2 %
    10:00Облачно с прояснениями+31°C39 %749 мм3.5 м/с2 %
    13:00Практически безоблачно+33°C39 %749 мм4.3 м/с7 %
    16:00Небольшая облачность+31°C43 %749 мм3.6 м/с10 %
    19:00Небольшая облачность+30°C48 %749 мм2.1 м/с6 %
    22:00Практически безоблачно+26°C71 %749 мм1.2 м/с2 %
  • 21июля
    Воскресенье
    +21°
    +32°
    Практически безоблачно
    ВремяПогодаТемператураВлажностьДавлениеВетер, м/сВероятность осадков
    01:00Облачно с прояснениями+24°C75 %750 мм1.3 м/с4 %
    04:00Пасмурно, сплошная облачность+26°C62 %750 мм2.2 м/с17 %
    07:00Пасмурно, сплошная облачность+24°C58 %751 мм4.2 м/с34 %
    10:00Ясно и безоблачно+30°C40 %752 мм4.0 м/с25 %
    13:00Практически безоблачно+31°C34 %751 мм4.1 м/с12 %
    16:00Практически безоблачно+30°C36 %751 мм3.9 м/с8 %
    19:00Практически безоблачно+28°C47 %751 мм1.7 м/с7 %
    22:00Ясно и безоблачно+26°C59 %752 мм1.0 м/с3 %
  • 22июля
    Понедельник
    +23°
    +35°
    Ясно и безоблачно
    ВремяПогодаТемператураВлажностьДавлениеВетер, м/сВероятность осадков
    01:00Ясно и безоблачно+24°C64 %752 мм1.1 м/с2 %
    04:00Ясно и безоблачно+23°C69 %751 мм0.6 м/с2 %
    07:00Ясно и безоблачно+25°C54 %752 мм1.6 м/с2 %
    10:00Ясно и безоблачно+32°C30 %752 мм2.6 м/с2 %
    13:00Ясно и безоблачно+34°C31 %751 мм4.5 м/с2 %
    16:00Ясно и безоблачно+33°C36 %751 мм4.7 м/с2 %
    19:00Ясно и безоблачно+31°C40 %751 мм3.0 м/с2 %
    22:00Ясно и безоблачно+26°C64 %752 мм1.5 м/с2 %
  • 23июля
    Вторник
    +25°
    +35°
    Ясно и безоблачно
    ВремяПогодаТемператураВлажностьДавлениеВетер, м/сВероятность осадков
    01:00Ясно и безоблачно+25°C73 %751 мм1.7 м/с2 %
    04:00Ясно и безоблачно+24°C72 %750 мм1.0 м/с2 %
    07:00Ясно и безоблачно+26°C61 %750 мм1.5 м/с2 %
    10:00Ясно и безоблачно+33°C51 %750 мм3.6 м/с2 %
    13:00Ясно и безоблачно+35°C41 %749 мм5.2 м/с2 %
    16:00Ясно и безоблачно+34°C47 %749 мм4.9 м/с4 %
    19:00Ясно и безоблачно+31°C61 %748 мм3.4 м/с3 %
    22:00Ясно и безоблачно+27°C81 %748 мм1.1 м/с2 %
  • 24июля
    Среда
    +25°
    +33°
    Ясно и безоблачно
    ВремяПогодаТемператураВлажностьДавлениеВетер, м/сВероятность осадков
    01:00Ясно и безоблачно+26°C89 %747 мм1.6 м/с2 %
    04:00Ясно и безоблачно+27°C84 %746 мм2.5 м/с4 %
    07:00Ясно и безоблачно+27°C75 %747 мм3.5 м/с2 %
    10:00Ясно и безоблачно+30°C61 %747 мм6.2 м/с4 %
    13:00Ясно и безоблачно+32°C46 %747 мм5.4 м/с15 %
    16:00Практически безоблачно+31°C50 %746 мм5.0 м/с16 %
    19:00Практически безоблачно+29°C55 %746 мм3.4 м/с6 %
    22:00Практически безоблачно+27°C67 %747 мм2.0 м/с8 %
Мы используем cookies
Соглашаюсь